sensor_id;sensor_type;location;lat;lon;timestamp;P1;durP1;ratioP1;P2;durP2;ratioP2
69744;SDS011;57015;50.120;-5.168;2023-04-03T00:02:14;3.27;;;0.73;;
69744;SDS011;57015;50.120;-5.168;2023-04-03T00:04:39;4.43;;;1.20;;
69744;SDS011;57015;50.120;-5.168;2023-04-03T00:07:05;3.17;;;1.00;;
69744;SDS011;57015;50.120;-5.168;2023-04-03T00:09:31;4.33;;;1.00;;
69744;SDS011;57015;50.120;-5.168;2023-04-03T00:11:56;4.73;;;1.23;;
69744;SDS011;57015;50.120;-5.168;2023-04-03T00:14:22;4.83;;;1.10;;
69744;SDS011;57015;50.120;-5.168;2023-04-03T00:16:47;3.00;;;0.70;;
69744;SDS011;57015;50.120;-5.168;2023-04-03T00:19:12;5.00;;;1.40;;
69744;SDS011;57015;50.120;-5.168;2023-04-03T00:21:38;6.53;;;1.53;;
69744;SDS011;57015;50.120;-5.168;2023-04-03T00:24:04;5.03;;;1.08;;
69744;SDS011;57015;50.120;-5.168;2023-04-03T00:26:29;2.70;;;0.85;;
69744;SDS011;57015;50.120;-5.168;2023-04-03T00:28:55;5.77;;;1.47;;
69744;SDS011;57015;50.120;-5.168;2023-04-03T00:31:21;4.43;;;1.20;;
69744;SDS011;57015;50.120;-5.168;2023-04-03T00:33:46;3.65;;;1.77;;
69744;SDS011;57015;50.120;-5.168;2023-04-03T00:36:12;3.77;;;1.10;;
69744;SDS011;57015;50.120;-5.168;2023-04-03T00:38:38;4.53;;;1.13;;
69744;SDS011;57015;50.120;-5.168;2023-04-03T00:41:03;3.22;;;1.20;;
69744;SDS011;57015;50.120;-5.168;2023-04-03T00:43:29;3.03;;;1.00;;
69744;SDS011;57015;50.120;-5.168;2023-04-03T00:45:56;3.97;;;1.20;;
69744;SDS011;57015;50.120;-5.168;2023-04-03T00:50:53;4.55;;;0.98;;
69744;SDS011;57015;50.120;-5.168;2023-04-03T00:53:21;4.47;;;0.80;;
69744;SDS011;57015;50.120;-5.168;2023-04-03T00:55:49;4.10;;;1.13;;
69744;SDS011;57015;50.120;-5.168;2023-04-03T00:58:17;4.60;;;1.00;;
69744;SDS011;57015;50.120;-5.168;2023-04-03T01:00:44;4.65;;;0.80;;
69744;SDS011;57015;50.120;-5.168;2023-04-03T01:03:13;3.60;;;1.25;;
69744;SDS011;57015;50.120;-5.168;2023-04-03T01:05:39;4.43;;;1.00;;
69744;SDS011;57015;50.120;-5.168;2023-04-03T01:08:05;3.60;;;0.95;;
69744;SDS011;57015;50.120;-5.168;2023-04-03T01:10:31;2.38;;;1.05;;
69744;SDS011;57015;50.120;-5.168;2023-04-03T01:12:56;3.00;;;1.10;;
69744;SDS011;57015;50.120;-5.168;2023-04-03T01:15:23;2.70;;;1.13;;
69744;SDS011;57015;50.120;-5.168;2023-04-03T01:17:52;3.78;;;0.90;;
69744;SDS011;57015;50.120;-5.168;2023-04-03T01:25:34;3.97;;;0.95;;
69744;SDS011;57015;50.120;-5.168;2023-04-03T01:28:01;5.13;;;1.25;;
69744;SDS011;57015;50.120;-5.168;2023-04-03T01:30:30;2.90;;;1.20;;
69744;SDS011;57015;50.120;-5.168;2023-04-03T01:32:57;5.80;;;2.35;;
69744;SDS011;57015;50.120;-5.168;2023-04-03T01:35:23;5.23;;;1.10;;
69744;SDS011;57015;50.120;-5.168;2023-04-03T01:37:48;2.90;;;1.27;;
69744;SDS011;57015;50.120;-5.168;2023-04-03T01:40:14;3.63;;;1.27;;
69744;SDS011;57015;50.120;-5.168;2023-04-03T01:42:39;4.60;;;1.03;;
69744;SDS011;57015;50.120;-5.168;2023-04-03T01:45:04;4.27;;;1.10;;
69744;SDS011;57015;50.120;-5.168;2023-04-03T01:47:30;4.60;;;1.02;;
69744;SDS011;57015;50.120;-5.168;2023-04-03T01:49:55;9.70;;;1.70;;
69744;SDS011;57015;50.120;-5.168;2023-04-03T01:52:21;3.33;;;0.93;;
69744;SDS011;57015;50.120;-5.168;2023-04-03T01:54:46;3.37;;;0.90;;
69744;SDS011;57015;50.120;-5.168;2023-04-03T01:57:11;3.73;;;0.83;;
69744;SDS011;57015;50.120;-5.168;2023-04-03T01:59:38;2.70;;;0.88;;
69744;SDS011;57015;50.120;-5.168;2023-04-03T02:02:04;3.87;;;1.13;;
69744;SDS011;57015;50.120;-5.168;2023-04-03T02:04:29;5.05;;;1.00;;
69744;SDS011;57015;50.120;-5.168;2023-04-03T02:06:54;4.07;;;1.20;;
69744;SDS011;57015;50.120;-5.168;2023-04-03T02:09:20;4.30;;;1.10;;
69744;SDS011;57015;50.120;-5.168;2023-04-03T02:11:45;2.73;;;1.00;;
69744;SDS011;57015;50.120;-5.168;2023-04-03T02:14:10;5.23;;;0.80;;
69744;SDS011;57015;50.120;-5.168;2023-04-03T02:16:36;3.33;;;1.17;;
69744;SDS011;57015;50.120;-5.168;2023-04-03T02:19:01;4.33;;;1.13;;
69744;SDS011;57015;50.120;-5.168;2023-04-03T02:21:27;4.47;;;1.00;;
69744;SDS011;57015;50.120;-5.168;2023-04-03T02:23:52;2.03;;;0.85;;
69744;SDS011;57015;50.120;-5.168;2023-04-03T02:26:18;5.07;;;0.80;;
69744;SDS011;57015;50.120;-5.168;2023-04-03T02:28:43;1.92;;;0.57;;
69744;SDS011;57015;50.120;-5.168;2023-04-03T02:31:09;3.83;;;0.77;;
69744;SDS011;57015;50.120;-5.168;2023-04-03T02:33:35;4.20;;;0.97;;
69744;SDS011;57015;50.120;-5.168;2023-04-03T02:36:02;4.00;;;0.90;;
69744;SDS011;57015;50.120;-5.168;2023-04-03T02:38:28;4.18;;;0.90;;
69744;SDS011;57015;50.120;-5.168;2023-04-03T02:40:59;4.07;;;1.57;;
69744;SDS011;57015;50.120;-5.168;2023-04-03T02:43:27;7.20;;;2.75;;
69744;SDS011;57015;50.120;-5.168;2023-04-03T02:45:53;8.83;;;3.57;;
69744;SDS011;57015;50.120;-5.168;2023-04-03T02:48:18;8.57;;;4.00;;
69744;SDS011;57015;50.120;-5.168;2023-04-03T02:50:43;10.50;;;4.40;;
69744;SDS011;57015;50.120;-5.168;2023-04-03T02:53:09;8.07;;;3.72;;
69744;SDS011;57015;50.120;-5.168;2023-04-03T02:55:34;11.20;;;4.43;;
69744;SDS011;57015;50.120;-5.168;2023-04-03T02:58:00;10.37;;;5.23;;
69744;SDS011;57015;50.120;-5.168;2023-04-03T03:00:25;10.73;;;4.10;;
69744;SDS011;57015;50.120;-5.168;2023-04-03T03:02:51;7.97;;;3.70;;
69744;SDS011;57015;50.120;-5.168;2023-04-03T03:05:16;11.63;;;4.32;;
69744;SDS011;57015;50.120;-5.168;2023-04-03T03:07:41;11.03;;;4.17;;
69744;SDS011;57015;50.120;-5.168;2023-04-03T03:10:07;7.50;;;3.20;;
69744;SDS011;57015;50.120;-5.168;2023-04-03T03:12:33;9.30;;;3.38;;
69744;SDS011;57015;50.120;-5.168;2023-04-03T03:14:58;7.60;;;3.20;;
69744;SDS011;57015;50.120;-5.168;2023-04-03T03:17:23;10.93;;;3.40;;
69744;SDS011;57015;50.120;-5.168;2023-04-03T03:19:49;9.17;;;3.27;;
69744;SDS011;57015;50.120;-5.168;2023-04-03T03:22:15;10.67;;;3.10;;
69744;SDS011;57015;50.120;-5.168;2023-04-03T03:24:41;7.38;;;3.03;;
69744;SDS011;57015;50.120;-5.168;2023-04-03T03:27:06;8.33;;;3.03;;
69744;SDS011;57015;50.120;-5.168;2023-04-03T03:29:31;10.00;;;3.07;;
69744;SDS011;57015;50.120;-5.168;2023-04-03T03:31:57;7.45;;;2.55;;
69744;SDS011;57015;50.120;-5.168;2023-04-03T03:34:22;6.32;;;2.60;;
69744;SDS011;57015;50.120;-5.168;2023-04-03T03:36:47;5.73;;;2.23;;
69744;SDS011;57015;50.120;-5.168;2023-04-03T03:39:16;8.07;;;2.23;;
69744;SDS011;57015;50.120;-5.168;2023-04-03T03:41:41;6.53;;;2.20;;
69744;SDS011;57015;50.120;-5.168;2023-04-03T03:44:07;7.80;;;2.10;;
69744;SDS011;57015;50.120;-5.168;2023-04-03T03:46:32;5.13;;;2.23;;
69744;SDS011;57015;50.120;-5.168;2023-04-03T03:48:57;7.00;;;1.87;;
69744;SDS011;57015;50.120;-5.168;2023-04-03T03:51:23;6.53;;;1.90;;
69744;SDS011;57015;50.120;-5.168;2023-04-03T03:53:48;6.57;;;1.90;;
69744;SDS011;57015;50.120;-5.168;2023-04-03T03:56:14;4.85;;;2.00;;
69744;SDS011;57015;50.120;-5.168;2023-04-03T03:58:39;4.63;;;1.50;;
69744;SDS011;57015;50.120;-5.168;2023-04-03T04:01:05;6.13;;;1.80;;
69744;SDS011;57015;50.120;-5.168;2023-04-03T04:03:31;4.10;;;1.73;;
69744;SDS011;57015;50.120;-5.168;2023-04-03T04:05:57;8.85;;;1.90;;
69744;SDS011;57015;50.120;-5.168;2023-04-03T04:08:22;5.20;;;1.60;;
69744;SDS011;57015;50.120;-5.168;2023-04-03T04:10:48;5.20;;;1.07;;
69744;SDS011;57015;50.120;-5.168;2023-04-03T04:13:13;5.97;;;1.50;;
69744;SDS011;57015;50.120;-5.168;2023-04-03T04:15:39;4.93;;;1.50;;
69744;SDS011;57015;50.120;-5.168;2023-04-03T04:18:05;3.00;;;0.90;;
69744;SDS011;57015;50.120;-5.168;2023-04-03T04:20:30;5.53;;;1.38;;
69744;SDS011;57015;50.120;-5.168;2023-04-03T04:22:56;3.80;;;1.30;;
69744;SDS011;57015;50.120;-5.168;2023-04-03T04:25:21;2.87;;;1.10;;
69744;SDS011;57015;50.120;-5.168;2023-04-03T04:27:46;8.97;;;1.10;;
69744;SDS011;57015;50.120;-5.168;2023-04-03T04:30:12;12.77;;;1.30;;
69744;SDS011;57015;50.120;-5.168;2023-04-03T04:32:38;6.38;;;1.20;;
69744;SDS011;57015;50.120;-5.168;2023-04-03T04:35:04;6.10;;;1.37;;
69744;SDS011;57015;50.120;-5.168;2023-04-03T04:37:29;4.47;;;1.10;;
69744;SDS011;57015;50.120;-5.168;2023-04-03T04:39:55;6.63;;;1.40;;
69744;SDS011;57015;50.120;-5.168;2023-04-03T04:42:20;11.00;;;1.77;;
69744;SDS011;57015;50.120;-5.168;2023-04-03T04:44:46;7.45;;;1.73;;
69744;SDS011;57015;50.120;-5.168;2023-04-03T04:47:11;3.92;;;1.10;;
69744;SDS011;57015;50.120;-5.168;2023-04-03T04:49:37;5.50;;;1.50;;
69744;SDS011;57015;50.120;-5.168;2023-04-03T04:52:02;3.97;;;1.30;;
69744;SDS011;57015;50.120;-5.168;2023-04-03T04:54:27;5.83;;;1.40;;
69744;SDS011;57015;50.120;-5.168;2023-04-03T04:56:53;6.40;;;1.53;;
69744;SDS011;57015;50.120;-5.168;2023-04-03T04:59:18;4.57;;;1.30;;
69744;SDS011;57015;50.120;-5.168;2023-04-03T05:01:43;5.93;;;1.30;;
69744;SDS011;57015;50.120;-5.168;2023-04-03T05:04:09;4.18;;;1.00;;
69744;SDS011;57015;50.120;-5.168;2023-04-03T05:06:34;7.38;;;1.60;;
69744;SDS011;57015;50.120;-5.168;2023-04-03T05:09:00;5.57;;;2.10;;
69744;SDS011;57015;50.120;-5.168;2023-04-03T05:11:25;5.93;;;1.70;;
69744;SDS011;57015;50.120;-5.168;2023-04-03T05:13:51;9.88;;;2.40;;
69744;SDS011;57015;50.120;-5.168;2023-04-03T05:16:16;6.68;;;2.20;;
69744;SDS011;57015;50.120;-5.168;2023-04-03T05:18:42;8.20;;;1.67;;
69744;SDS011;57015;50.120;-5.168;2023-04-03T05:21:07;7.03;;;1.40;;
69744;SDS011;57015;50.120;-5.168;2023-04-03T05:23:32;5.27;;;1.40;;
69744;SDS011;57015;50.120;-5.168;2023-04-03T05:25:58;5.73;;;1.50;;
69744;SDS011;57015;50.120;-5.168;2023-04-03T05:28:23;5.07;;;2.40;;
69744;SDS011;57015;50.120;-5.168;2023-04-03T05:30:55;7.30;;;2.10;;
69744;SDS011;57015;50.120;-5.168;2023-04-03T05:33:22;6.10;;;1.42;;
69744;SDS011;57015;50.120;-5.168;2023-04-03T05:35:48;6.70;;;1.52;;
69744;SDS011;57015;50.120;-5.168;2023-04-03T05:38:13;3.37;;;1.60;;
69744;SDS011;57015;50.120;-5.168;2023-04-03T05:40:39;4.93;;;1.50;;
69744;SDS011;57015;50.120;-5.168;2023-04-03T05:43:05;9.00;;;2.00;;
69744;SDS011;57015;50.120;-5.168;2023-04-03T05:45:30;8.13;;;1.83;;
69744;SDS011;57015;50.120;-5.168;2023-04-03T05:47:56;5.40;;;1.50;;
69744;SDS011;57015;50.120;-5.168;2023-04-03T05:50:21;7.87;;;1.57;;
69744;SDS011;57015;50.120;-5.168;2023-04-03T05:52:48;5.97;;;2.13;;
69744;SDS011;57015;50.120;-5.168;2023-04-03T05:55:14;4.97;;;1.30;;
69744;SDS011;57015;50.120;-5.168;2023-04-03T05:57:40;4.27;;;1.40;;
69744;SDS011;57015;50.120;-5.168;2023-04-03T06:00:06;7.47;;;1.80;;
69744;SDS011;57015;50.120;-5.168;2023-04-03T06:02:34;6.55;;;1.33;;
69744;SDS011;57015;50.120;-5.168;2023-04-03T06:05:00;4.50;;;1.30;;
69744;SDS011;57015;50.120;-5.168;2023-04-03T06:07:26;6.53;;;1.20;;
69744;SDS011;57015;50.120;-5.168;2023-04-03T06:09:53;6.80;;;1.50;;
69744;SDS011;57015;50.120;-5.168;2023-04-03T06:12:20;8.45;;;1.70;;
69744;SDS011;57015;50.120;-5.168;2023-04-03T06:14:46;6.40;;;1.40;;
69744;SDS011;57015;50.120;-5.168;2023-04-03T06:17:12;8.82;;;1.50;;
69744;SDS011;57015;50.120;-5.168;2023-04-03T06:19:39;5.47;;;1.77;;
69744;SDS011;57015;50.120;-5.168;2023-04-03T06:22:04;4.45;;;1.42;;
69744;SDS011;57015;50.120;-5.168;2023-04-03T06:24:29;6.87;;;1.60;;
69744;SDS011;57015;50.120;-5.168;2023-04-03T06:26:56;6.53;;;1.67;;
69744;SDS011;57015;50.120;-5.168;2023-04-03T06:29:21;5.32;;;2.15;;
69744;SDS011;57015;50.120;-5.168;2023-04-03T06:31:47;6.73;;;1.87;;
69744;SDS011;57015;50.120;-5.168;2023-04-03T06:34:13;7.47;;;1.73;;
69744;SDS011;57015;50.120;-5.168;2023-04-03T06:36:40;7.95;;;1.85;;
69744;SDS011;57015;50.120;-5.168;2023-04-03T06:39:06;10.17;;;1.50;;
69744;SDS011;57015;50.120;-5.168;2023-04-03T06:41:32;5.40;;;1.48;;
69744;SDS011;57015;50.120;-5.168;2023-04-03T06:43:58;8.32;;;1.55;;
69744;SDS011;57015;50.120;-5.168;2023-04-03T06:46:23;6.77;;;1.53;;
69744;SDS011;57015;50.120;-5.168;2023-04-03T06:48:50;7.30;;;1.73;;
69744;SDS011;57015;50.120;-5.168;2023-04-03T06:51:20;7.50;;;1.50;;
69744;SDS011;57015;50.120;-5.168;2023-04-03T06:53:48;9.85;;;1.90;;
69744;SDS011;57015;50.120;-5.168;2023-04-03T06:56:14;5.70;;;1.42;;
69744;SDS011;57015;50.120;-5.168;2023-04-03T06:58:40;9.55;;;1.77;;
69744;SDS011;57015;50.120;-5.168;2023-04-03T07:01:07;10.57;;;2.65;;
69744;SDS011;57015;50.120;-5.168;2023-04-03T07:03:33;7.33;;;1.73;;
69744;SDS011;57015;50.120;-5.168;2023-04-03T07:05:58;6.93;;;1.40;;
69744;SDS011;57015;50.120;-5.168;2023-04-03T07:08:23;10.10;;;1.73;;
69744;SDS011;57015;50.120;-5.168;2023-04-03T07:10:51;7.10;;;1.83;;
69744;SDS011;57015;50.120;-5.168;2023-04-03T07:13:16;5.00;;;1.60;;
69744;SDS011;57015;50.120;-5.168;2023-04-03T07:15:42;7.43;;;1.73;;
69744;SDS011;57015;50.120;-5.168;2023-04-03T07:18:07;9.00;;;1.43;;
69744;SDS011;57015;50.120;-5.168;2023-04-03T07:20:33;8.32;;;1.90;;
69744;SDS011;57015;50.120;-5.168;2023-04-03T07:22:58;7.77;;;1.60;;
69744;SDS011;57015;50.120;-5.168;2023-04-03T07:25:24;7.63;;;2.25;;
69744;SDS011;57015;50.120;-5.168;2023-04-03T07:27:50;5.13;;;1.90;;
69744;SDS011;57015;50.120;-5.168;2023-04-03T07:30:15;5.43;;;1.77;;
69744;SDS011;57015;50.120;-5.168;2023-04-03T07:32:41;7.60;;;2.40;;
69744;SDS011;57015;50.120;-5.168;2023-04-03T07:35:07;9.13;;;3.03;;
69744;SDS011;57015;50.120;-5.168;2023-04-03T07:37:32;9.50;;;2.87;;
69744;SDS011;57015;50.120;-5.168;2023-04-03T07:39:58;8.73;;;2.90;;
69744;SDS011;57015;50.120;-5.168;2023-04-03T07:42:24;6.33;;;1.97;;
69744;SDS011;57015;50.120;-5.168;2023-04-03T07:44:52;9.40;;;2.25;;
69744;SDS011;57015;50.120;-5.168;2023-04-03T07:47:18;11.90;;;2.47;;
69744;SDS011;57015;50.120;-5.168;2023-04-03T07:49:43;9.03;;;2.20;;
69744;SDS011;57015;50.120;-5.168;2023-04-03T07:52:09;11.23;;;2.80;;
69744;SDS011;57015;50.120;-5.168;2023-04-03T07:54:34;7.30;;;2.10;;
69744;SDS011;57015;50.120;-5.168;2023-04-03T07:57:00;6.45;;;1.88;;
69744;SDS011;57015;50.120;-5.168;2023-04-03T07:59:26;8.23;;;3.00;;
69744;SDS011;57015;50.120;-5.168;2023-04-03T08:01:51;11.50;;;2.13;;
69744;SDS011;57015;50.120;-5.168;2023-04-03T08:04:16;7.70;;;2.00;;
69744;SDS011;57015;50.120;-5.168;2023-04-03T08:06:42;8.63;;;2.20;;
69744;SDS011;57015;50.120;-5.168;2023-04-03T08:09:07;8.00;;;1.80;;
69744;SDS011;57015;50.120;-5.168;2023-04-03T08:11:33;6.10;;;1.70;;
69744;SDS011;57015;50.120;-5.168;2023-04-03T08:13:58;7.90;;;2.15;;
69744;SDS011;57015;50.120;-5.168;2023-04-03T08:16:24;5.57;;;1.87;;
69744;SDS011;57015;50.120;-5.168;2023-04-03T08:18:53;9.27;;;1.58;;
69744;SDS011;57015;50.120;-5.168;2023-04-03T08:21:20;7.90;;;1.90;;
69744;SDS011;57015;50.120;-5.168;2023-04-03T08:23:47;9.40;;;2.53;;
69744;SDS011;57015;50.120;-5.168;2023-04-03T08:26:14;7.30;;;1.67;;
69744;SDS011;57015;50.120;-5.168;2023-04-03T08:28:41;7.55;;;1.70;;
69744;SDS011;57015;50.120;-5.168;2023-04-03T08:31:08;5.33;;;2.00;;
69744;SDS011;57015;50.120;-5.168;2023-04-03T08:33:35;9.73;;;2.25;;
69744;SDS011;57015;50.120;-5.168;2023-04-03T08:36:02;10.50;;;2.00;;
69744;SDS011;57015;50.120;-5.168;2023-04-03T08:38:29;9.18;;;1.95;;
69744;SDS011;57015;50.120;-5.168;2023-04-03T08:44:03;12.57;;;2.00;;
69744;SDS011;57015;50.120;-5.168;2023-04-03T08:49:04;11.30;;;1.60;;
69744;SDS011;57015;50.120;-5.168;2023-04-03T08:51:35;9.35;;;2.25;;
69744;SDS011;57015;50.120;-5.168;2023-04-03T08:54:05;9.47;;;2.53;;
69744;SDS011;57015;50.120;-5.168;2023-04-03T08:56:34;14.10;;;2.03;;
69744;SDS011;57015;50.120;-5.168;2023-04-03T08:59:00;10.48;;;1.92;;
69744;SDS011;57015;50.120;-5.168;2023-04-03T09:01:39;11.77;;;2.20;;
69744;SDS011;57015;50.120;-5.168;2023-04-03T09:04:12;14.30;;;2.42;;
69744;SDS011;57015;50.120;-5.168;2023-04-03T09:06:39;8.00;;;1.48;;
69744;SDS011;57015;50.120;-5.168;2023-04-03T09:12:06;7.63;;;1.50;;
69744;SDS011;57015;50.120;-5.168;2023-04-03T09:14:45;11.83;;;1.57;;
69744;SDS011;57015;50.120;-5.168;2023-04-03T09:23:50;5.85;;;1.17;;
69744;SDS011;57015;50.120;-5.168;2023-04-03T09:26:29;10.75;;;1.60;;
69744;SDS011;57015;50.120;-5.168;2023-04-03T09:28:57;6.73;;;1.80;;
69744;SDS011;57015;50.120;-5.168;2023-04-03T09:31:46;9.02;;;1.52;;
69744;SDS011;57015;50.120;-5.168;2023-04-03T09:34:20;9.10;;;1.60;;
69744;SDS011;57015;50.120;-5.168;2023-04-03T09:36:58;6.22;;;1.42;;
69744;SDS011;57015;50.120;-5.168;2023-04-03T09:39:30;9.25;;;1.65;;
69744;SDS011;57015;50.120;-5.168;2023-04-03T09:42:13;5.30;;;1.30;;
69744;SDS011;57015;50.120;-5.168;2023-04-03T09:44:54;8.00;;;1.42;;
69744;SDS011;57015;50.120;-5.168;2023-04-03T09:52:38;8.43;;;1.60;;
69744;SDS011;57015;50.120;-5.168;2023-04-03T09:55:14;14.60;;;2.20;;
69744;SDS011;57015;50.120;-5.168;2023-04-03T09:57:41;9.68;;;1.30;;
69744;SDS011;57015;50.120;-5.168;2023-04-03T10:00:10;5.83;;;1.50;;
69744;SDS011;57015;50.120;-5.168;2023-04-03T10:02:47;7.45;;;1.20;;
69744;SDS011;57015;50.120;-5.168;2023-04-03T10:05:27;8.30;;;1.17;;
69744;SDS011;57015;50.120;-5.168;2023-04-03T10:10:37;5.97;;;1.30;;
69744;SDS011;57015;50.120;-5.168;2023-04-03T10:13:16;6.50;;;0.80;;
69744;SDS011;57015;50.120;-5.168;2023-04-03T10:21:13;6.40;;;1.50;;
69744;SDS011;57015;50.120;-5.168;2023-04-03T10:23:44;8.15;;;1.10;;
69744;SDS011;57015;50.120;-5.168;2023-04-03T10:31:55;5.20;;;1.10;;
69744;SDS011;57015;50.120;-5.168;2023-04-03T10:34:32;6.40;;;1.33;;
69744;SDS011;57015;50.120;-5.168;2023-04-03T10:51:10;8.25;;;1.02;;
69744;SDS011;57015;50.120;-5.168;2023-04-03T10:56:39;8.55;;;1.40;;
69744;SDS011;57015;50.120;-5.168;2023-04-03T11:01:51;12.60;;;1.53;;
69744;SDS011;57015;50.120;-5.168;2023-04-03T11:04:19;8.90;;;0.93;;
69744;SDS011;57015;50.120;-5.168;2023-04-03T11:07:02;7.93;;;1.50;;
69744;SDS011;57015;50.120;-5.168;2023-04-03T11:09:34;3.90;;;1.15;;
69744;SDS011;57015;50.120;-5.168;2023-04-03T11:12:13;10.20;;;1.35;;
69744;SDS011;57015;50.120;-5.168;2023-04-03T11:14:40;6.83;;;1.40;;
69744;SDS011;57015;50.120;-5.168;2023-04-03T11:24:41;4.00;;;0.82;;
69744;SDS011;57015;50.120;-5.168;2023-04-03T11:27:11;7.43;;;1.07;;
69744;SDS011;57015;50.120;-5.168;2023-04-03T11:29:41;13.55;;;1.50;;
69744;SDS011;57015;50.120;-5.168;2023-04-03T11:32:13;6.60;;;1.20;;
69744;SDS011;57015;50.120;-5.168;2023-04-03T11:34:44;5.18;;;1.10;;
69744;SDS011;57015;50.120;-5.168;2023-04-03T11:39:57;7.10;;;1.17;;
69744;SDS011;57015;50.120;-5.168;2023-04-03T11:45:15;9.52;;;1.35;;
69744;SDS011;57015;50.120;-5.168;2023-04-03T11:47:49;5.50;;;1.27;;
69744;SDS011;57015;50.120;-5.168;2023-04-03T11:53:03;5.70;;;1.27;;
69744;SDS011;57015;50.120;-5.168;2023-04-03T12:05:56;6.65;;;1.05;;
69744;SDS011;57015;50.120;-5.168;2023-04-03T12:13:39;5.68;;;0.90;;
69744;SDS011;57015;50.120;-5.168;2023-04-03T12:19:04;5.97;;;1.02;;
69744;SDS011;57015;50.120;-5.168;2023-04-03T12:24:31;6.82;;;0.95;;
69744;SDS011;57015;50.120;-5.168;2023-04-03T12:48:18;8.20;;;1.00;;
69744;SDS011;57015;50.120;-5.168;2023-04-03T12:50:47;8.68;;;1.05;;
69744;SDS011;57015;50.120;-5.168;2023-04-03T12:55:40;6.13;;;0.65;;
69744;SDS011;57015;50.120;-5.168;2023-04-03T12:58:16;8.98;;;1.33;;
69744;SDS011;57015;50.120;-5.168;2023-04-03T13:00:44;14.90;;;0.75;;
69744;SDS011;57015;50.120;-5.168;2023-04-03T13:03:20;7.77;;;0.50;;
69744;SDS011;57015;50.120;-5.168;2023-04-03T13:05:48;5.53;;;0.90;;
69744;SDS011;57015;50.120;-5.168;2023-04-03T13:08:13;7.73;;;0.80;;
69744;SDS011;57015;50.120;-5.168;2023-04-03T13:13:38;3.77;;;0.70;;
69744;SDS011;57015;50.120;-5.168;2023-04-03T13:16:08;3.92;;;0.60;;
69744;SDS011;57015;50.120;-5.168;2023-04-03T13:18:35;4.57;;;0.68;;
69744;SDS011;57015;50.120;-5.168;2023-04-03T13:21:03;2.85;;;0.50;;
69744;SDS011;57015;50.120;-5.168;2023-04-03T13:23:31;6.03;;;0.87;;
69744;SDS011;57015;50.120;-5.168;2023-04-03T13:25:59;8.95;;;0.63;;
69744;SDS011;57015;50.120;-5.168;2023-04-03T13:28:29;6.13;;;0.70;;
69744;SDS011;57015;50.120;-5.168;2023-04-03T13:33:39;6.10;;;0.88;;
69744;SDS011;57015;50.120;-5.168;2023-04-03T13:36:33;9.17;;;0.60;;
69744;SDS011;57015;50.120;-5.168;2023-04-03T13:39:04;2.30;;;0.63;;
69744;SDS011;57015;50.120;-5.168;2023-04-03T13:41:38;5.85;;;0.50;;
69744;SDS011;57015;50.120;-5.168;2023-04-03T13:46:46;3.15;;;0.60;;
69744;SDS011;57015;50.120;-5.168;2023-04-03T13:51:55;2.97;;;0.70;;
69744;SDS011;57015;50.120;-5.168;2023-04-03T13:54:28;3.67;;;0.52;;
69744;SDS011;57015;50.120;-5.168;2023-04-03T13:56:56;7.65;;;0.60;;
69744;SDS011;57015;50.120;-5.168;2023-04-03T13:59:30;5.03;;;0.60;;
69744;SDS011;57015;50.120;-5.168;2023-04-03T14:04:30;5.85;;;0.60;;
69744;SDS011;57015;50.120;-5.168;2023-04-03T14:07:18;4.25;;;0.63;;
69744;SDS011;57015;50.120;-5.168;2023-04-03T14:09:45;15.90;;;2.03;;
69744;SDS011;57015;50.120;-5.168;2023-04-03T14:12:19;9.73;;;0.80;;
69744;SDS011;57015;50.120;-5.168;2023-04-03T14:14:50;7.18;;;0.75;;
69744;SDS011;57015;50.120;-5.168;2023-04-03T14:17:17;7.53;;;0.70;;
69744;SDS011;57015;50.120;-5.168;2023-04-03T14:19:47;4.13;;;0.45;;
69744;SDS011;57015;50.120;-5.168;2023-04-03T14:22:15;6.75;;;0.47;;
69744;SDS011;57015;50.120;-5.168;2023-04-03T14:24:42;4.97;;;0.93;;
69744;SDS011;57015;50.120;-5.168;2023-04-03T14:27:16;4.43;;;0.45;;
69744;SDS011;57015;50.120;-5.168;2023-04-03T14:29:50;3.10;;;0.47;;
69744;SDS011;57015;50.120;-5.168;2023-04-03T14:32:17;2.20;;;0.60;;
69744;SDS011;57015;50.120;-5.168;2023-04-03T14:34:44;7.70;;;1.02;;
69744;SDS011;57015;50.120;-5.168;2023-04-03T14:37:14;3.95;;;0.90;;
69744;SDS011;57015;50.120;-5.168;2023-04-03T14:39:42;7.07;;;0.85;;
69744;SDS011;57015;50.120;-5.168;2023-04-03T14:42:11;10.43;;;0.80;;
69744;SDS011;57015;50.120;-5.168;2023-04-03T14:44:44;4.70;;;0.82;;
69744;SDS011;57015;50.120;-5.168;2023-04-03T14:47:11;2.63;;;0.50;;
69744;SDS011;57015;50.120;-5.168;2023-04-03T14:49:42;6.23;;;0.90;;
69744;SDS011;57015;50.120;-5.168;2023-04-03T14:52:25;22.30;;;0.88;;
69744;SDS011;57015;50.120;-5.168;2023-04-03T14:54:54;6.88;;;0.68;;
69744;SDS011;57015;50.120;-5.168;2023-04-03T14:57:21;6.72;;;0.80;;
69744;SDS011;57015;50.120;-5.168;2023-04-03T14:59:49;4.70;;;1.30;;
69744;SDS011;57015;50.120;-5.168;2023-04-03T15:04:50;7.95;;;1.02;;
69744;SDS011;57015;50.120;-5.168;2023-04-03T15:07:16;5.80;;;0.60;;
69744;SDS011;57015;50.120;-5.168;2023-04-03T15:09:41;3.27;;;0.80;;
69744;SDS011;57015;50.120;-5.168;2023-04-03T15:12:07;7.77;;;1.10;;
69744;SDS011;57015;50.120;-5.168;2023-04-03T15:14:33;6.25;;;1.10;;
69744;SDS011;57015;50.120;-5.168;2023-04-03T15:16:58;3.63;;;0.83;;
69744;SDS011;57015;50.120;-5.168;2023-04-03T15:19:24;6.00;;;1.73;;
69744;SDS011;57015;50.120;-5.168;2023-04-03T15:21:49;6.55;;;1.17;;
69744;SDS011;57015;50.120;-5.168;2023-04-03T15:24:15;4.95;;;1.40;;
69744;SDS011;57015;50.120;-5.168;2023-04-03T15:26:41;5.60;;;1.03;;
69744;SDS011;57015;50.120;-5.168;2023-04-03T15:29:07;8.83;;;1.47;;
69744;SDS011;57015;50.120;-5.168;2023-04-03T15:31:32;7.03;;;1.77;;
69744;SDS011;57015;50.120;-5.168;2023-04-03T15:33:58;4.97;;;1.27;;
69744;SDS011;57015;50.120;-5.168;2023-04-03T15:36:23;4.53;;;1.70;;
69744;SDS011;57015;50.120;-5.168;2023-04-03T15:38:48;7.03;;;1.50;;
69744;SDS011;57015;50.120;-5.168;2023-04-03T15:41:14;4.82;;;1.60;;
69744;SDS011;57015;50.120;-5.168;2023-04-03T15:43:40;5.90;;;1.47;;
69744;SDS011;57015;50.120;-5.168;2023-04-03T15:46:06;6.18;;;1.73;;
69744;SDS011;57015;50.120;-5.168;2023-04-03T15:48:31;8.83;;;2.23;;
69744;SDS011;57015;50.120;-5.168;2023-04-03T15:50:57;6.90;;;2.00;;
69744;SDS011;57015;50.120;-5.168;2023-04-03T15:53:22;5.68;;;2.00;;
69744;SDS011;57015;50.120;-5.168;2023-04-03T15:55:48;9.50;;;2.08;;
69744;SDS011;57015;50.120;-5.168;2023-04-03T15:58:13;6.00;;;2.00;;
69744;SDS011;57015;50.120;-5.168;2023-04-03T16:00:38;10.63;;;2.50;;
69744;SDS011;57015;50.120;-5.168;2023-04-03T16:03:05;9.70;;;2.43;;
69744;SDS011;57015;50.120;-5.168;2023-04-03T16:05:34;8.98;;;1.67;;
69744;SDS011;57015;50.120;-5.168;2023-04-03T16:08:00;7.32;;;2.00;;
69744;SDS011;57015;50.120;-5.168;2023-04-03T16:10:26;8.05;;;2.15;;
69744;SDS011;57015;50.120;-5.168;2023-04-03T16:12:51;7.30;;;2.07;;
69744;SDS011;57015;50.120;-5.168;2023-04-03T16:15:17;9.73;;;2.60;;
69744;SDS011;57015;50.120;-5.168;2023-04-03T16:17:43;8.73;;;2.10;;
69744;SDS011;57015;50.120;-5.168;2023-04-03T16:20:08;10.43;;;2.50;;
69744;SDS011;57015;50.120;-5.168;2023-04-03T16:22:36;9.47;;;2.00;;
69744;SDS011;57015;50.120;-5.168;2023-04-03T16:25:02;6.20;;;1.75;;
69744;SDS011;57015;50.120;-5.168;2023-04-03T16:27:28;9.68;;;2.00;;
69744;SDS011;57015;50.120;-5.168;2023-04-03T16:29:56;9.75;;;2.00;;
69744;SDS011;57015;50.120;-5.168;2023-04-03T16:32:22;7.75;;;2.05;;
69744;SDS011;57015;50.120;-5.168;2023-04-03T16:34:48;7.07;;;1.97;;
69744;SDS011;57015;50.120;-5.168;2023-04-03T16:37:13;5.72;;;1.80;;
69744;SDS011;57015;50.120;-5.168;2023-04-03T16:39:39;5.05;;;1.30;;
69744;SDS011;57015;50.120;-5.168;2023-04-03T16:42:05;10.07;;;1.90;;
69744;SDS011;57015;50.120;-5.168;2023-04-03T16:44:30;6.20;;;1.60;;
69744;SDS011;57015;50.120;-5.168;2023-04-03T16:46:56;5.87;;;1.47;;
69744;SDS011;57015;50.120;-5.168;2023-04-03T16:49:21;8.87;;;1.87;;
69744;SDS011;57015;50.120;-5.168;2023-04-03T16:51:48;7.37;;;1.47;;
69744;SDS011;57015;50.120;-5.168;2023-04-03T16:54:13;6.78;;;1.50;;